sensor_id;sensor_type;location;lat;lon;timestamp;pressure;altitude;pressure_sealevel;temperature
20730;BMP280;10526;50.850;12.928;2023-04-03T00:04:21;98887.13;;;1.47
20730;BMP280;10526;50.850;12.928;2023-04-03T00:08:43;98883.56;;;1.35
20730;BMP280;10526;50.850;12.928;2023-04-03T00:13:06;98890.63;;;1.26
20730;BMP280;10526;50.850;12.928;2023-04-03T00:17:28;98891.53;;;1.12
20730;BMP280;10526;50.850;12.928;2023-04-03T00:21:50;98887.31;;;1.03
20730;BMP280;10526;50.850;12.928;2023-04-03T00:26:12;98887.91;;;0.99
20730;BMP280;10526;50.850;12.928;2023-04-03T00:30:35;98886.06;;;1.00
20730;BMP280;10526;50.850;12.928;2023-04-03T00:34:57;98891.78;;;1.02
20730;BMP280;10526;50.850;12.928;2023-04-03T00:39:20;98892.09;;;1.01
20730;BMP280;10526;50.850;12.928;2023-04-03T00:43:42;98895.72;;;0.91
20730;BMP280;10526;50.850;12.928;2023-04-03T00:48:08;98895.09;;;0.85
20730;BMP280;10526;50.850;12.928;2023-04-03T00:52:32;98903.25;;;0.84
20730;BMP280;10526;50.850;12.928;2023-04-03T00:56:56;98913.56;;;0.80
20730;BMP280;10526;50.850;12.928;2023-04-03T01:01:24;98905.81;;;0.75
20730;BMP280;10526;50.850;12.928;2023-04-03T01:05:47;98903.84;;;0.81
20730;BMP280;10526;50.850;12.928;2023-04-03T01:10:12;98908.97;;;0.86
20730;BMP280;10526;50.850;12.928;2023-04-03T01:14:36;98907.09;;;0.78
20730;BMP280;10526;50.850;12.928;2023-04-03T01:19:00;98902.44;;;0.74
20730;BMP280;10526;50.850;12.928;2023-04-03T01:27:55;98913.16;;;0.64
20730;BMP280;10526;50.850;12.928;2023-04-03T01:32:17;98918.03;;;0.57
20730;BMP280;10526;50.850;12.928;2023-04-03T01:36:39;98914.97;;;0.55
20730;BMP280;10526;50.850;12.928;2023-04-03T01:41:02;98918.16;;;0.52
20730;BMP280;10526;50.850;12.928;2023-04-03T01:45:24;98923.34;;;0.43
20730;BMP280;10526;50.850;12.928;2023-04-03T01:49:47;98916.38;;;0.39
20730;BMP280;10526;50.850;12.928;2023-04-03T01:54:09;98910.31;;;0.30
20730;BMP280;10526;50.850;12.928;2023-04-03T01:58:32;98919.25;;;0.29
20730;BMP280;10526;50.850;12.928;2023-04-03T02:02:54;98918.13;;;0.21
20730;BMP280;10526;50.850;12.928;2023-04-03T02:07:17;98919.97;;;0.20
20730;BMP280;10526;50.850;12.928;2023-04-03T02:11:40;98922.41;;;0.17
20730;BMP280;10526;50.850;12.928;2023-04-03T02:16:11;98922.69;;;0.15
20730;BMP280;10526;50.850;12.928;2023-04-03T02:20:36;98917.69;;;0.05
20730;BMP280;10526;50.850;12.928;2023-04-03T02:24:59;98918.38;;;-0.03
20730;BMP280;10526;50.850;12.928;2023-04-03T02:29:22;98922.94;;;-0.09
20730;BMP280;10526;50.850;12.928;2023-04-03T02:33:45;98926.44;;;-0.13
20730;BMP280;10526;50.850;12.928;2023-04-03T02:38:09;98932.81;;;-0.19
20730;BMP280;10526;50.850;12.928;2023-04-03T02:42:32;98931.41;;;-0.26
20730;BMP280;10526;50.850;12.928;2023-04-03T02:46:54;98924.97;;;-0.33
20730;BMP280;10526;50.850;12.928;2023-04-03T02:51:17;98942.13;;;-0.41
20730;BMP280;10526;50.850;12.928;2023-04-03T02:55:39;98935.72;;;-0.49
20730;BMP280;10526;50.850;12.928;2023-04-03T03:00:02;98939.81;;;-0.56
20730;BMP280;10526;50.850;12.928;2023-04-03T03:04:24;98947.75;;;-0.61
20730;BMP280;10526;50.850;12.928;2023-04-03T03:08:47;98942.91;;;-0.68
20730;BMP280;10526;50.850;12.928;2023-04-03T03:13:09;98946.19;;;-0.76
20730;BMP280;10526;50.850;12.928;2023-04-03T03:17:31;98951.22;;;-0.80
20730;BMP280;10526;50.850;12.928;2023-04-03T03:21:53;98951.88;;;-0.88
20730;BMP280;10526;50.850;12.928;2023-04-03T03:26:16;98951.88;;;-0.88
20730;BMP280;10526;50.850;12.928;2023-04-03T03:30:39;98958.81;;;-0.97
20730;BMP280;10526;50.850;12.928;2023-04-03T03:35:01;98968.84;;;-1.04
20730;BMP280;10526;50.850;12.928;2023-04-03T03:39:23;98976.16;;;-1.20
20730;BMP280;10526;50.850;12.928;2023-04-03T03:43:46;98971.91;;;-1.35
20730;BMP280;10526;50.850;12.928;2023-04-03T03:48:09;98972.66;;;-1.48
20730;BMP280;10526;50.850;12.928;2023-04-03T03:52:32;98974.63;;;-1.59
20730;BMP280;10526;50.850;12.928;2023-04-03T03:56:55;98982.97;;;-1.76
20730;BMP280;10526;50.850;12.928;2023-04-03T04:01:19;98982.75;;;-1.79
20730;BMP280;10526;50.850;12.928;2023-04-03T04:05:43;98986.75;;;-1.87
20730;BMP280;10526;50.850;12.928;2023-04-03T04:10:07;98982.00;;;-1.85
20730;BMP280;10526;50.850;12.928;2023-04-03T04:14:29;98993.06;;;-1.93
20730;BMP280;10526;50.850;12.928;2023-04-03T04:18:52;98991.28;;;-1.98
20730;BMP280;10526;50.850;12.928;2023-04-03T04:23:17;98993.69;;;-2.01
20730;BMP280;10526;50.850;12.928;2023-04-03T04:27:40;99005.72;;;-2.05
20730;BMP280;10526;50.850;12.928;2023-04-03T04:32:04;99004.72;;;-2.09
20730;BMP280;10526;50.850;12.928;2023-04-03T04:36:26;99003.44;;;-2.12
20730;BMP280;10526;50.850;12.928;2023-04-03T04:40:49;99005.84;;;-2.15
20730;BMP280;10526;50.850;12.928;2023-04-03T04:45:12;99006.34;;;-2.13
20730;BMP280;10526;50.850;12.928;2023-04-03T04:49:36;99006.66;;;-2.15
20730;BMP280;10526;50.850;12.928;2023-04-03T04:54:00;99023.84;;;-2.14
20730;BMP280;10526;50.850;12.928;2023-04-03T04:58:22;99026.38;;;-2.09
20730;BMP280;10526;50.850;12.928;2023-04-03T05:02:45;99025.97;;;-1.49
20730;BMP280;10526;50.850;12.928;2023-04-03T05:07:08;99032.91;;;0.05
20730;BMP280;10526;50.850;12.928;2023-04-03T05:11:32;99032.63;;;1.55
20730;BMP280;10526;50.850;12.928;2023-04-03T05:15:54;99042.44;;;2.46
20730;BMP280;10526;50.850;12.928;2023-04-03T05:20:18;99043.28;;;2.07
20730;BMP280;10526;50.850;12.928;2023-04-03T05:24:42;99046.38;;;2.01
20730;BMP280;10526;50.850;12.928;2023-04-03T05:29:05;99046.44;;;1.69
20730;BMP280;10526;50.850;12.928;2023-04-03T05:33:28;99047.25;;;1.47
20730;BMP280;10526;50.850;12.928;2023-04-03T05:37:52;99045.03;;;1.41
20730;BMP280;10526;50.850;12.928;2023-04-03T05:42:15;99053.22;;;1.08
20730;BMP280;10526;50.850;12.928;2023-04-03T05:46:37;99058.09;;;1.23
20730;BMP280;10526;50.850;12.928;2023-04-03T05:51:03;99057.72;;;0.94
20730;BMP280;10526;50.850;12.928;2023-04-03T05:55:26;99071.38;;;0.18
20730;BMP280;10526;50.850;12.928;2023-04-03T05:59:49;99062.25;;;-0.12
20730;BMP280;10526;50.850;12.928;2023-04-03T06:04:13;99074.78;;;-0.22
20730;BMP280;10526;50.850;12.928;2023-04-03T06:08:35;99080.09;;;-0.28
20730;BMP280;10526;50.850;12.928;2023-04-03T06:12:57;99082.22;;;-0.30
20730;BMP280;10526;50.850;12.928;2023-04-03T06:17:20;99081.56;;;-0.21
20730;BMP280;10526;50.850;12.928;2023-04-03T06:21:42;99078.06;;;-0.17
20730;BMP280;10526;50.850;12.928;2023-04-03T06:26:04;99086.34;;;0.04
20730;BMP280;10526;50.850;12.928;2023-04-03T06:30:27;99085.88;;;0.16
20730;BMP280;10526;50.850;12.928;2023-04-03T06:34:49;99090.13;;;0.26
20730;BMP280;10526;50.850;12.928;2023-04-03T06:39:18;99094.00;;;0.14
20730;BMP280;10526;50.850;12.928;2023-04-03T06:43:44;99096.41;;;0.11
20730;BMP280;10526;50.850;12.928;2023-04-03T06:48:06;99095.25;;;0.03
20730;BMP280;10526;50.850;12.928;2023-04-03T06:52:29;99109.91;;;0.04
20730;BMP280;10526;50.850;12.928;2023-04-03T06:56:51;99101.47;;;0.07
20730;BMP280;10526;50.850;12.928;2023-04-03T07:01:15;99122.03;;;0.14
20730;BMP280;10526;50.850;12.928;2023-04-03T07:05:38;99107.59;;;0.16
20730;BMP280;10526;50.850;12.928;2023-04-03T07:10:00;99132.00;;;0.39
20730;BMP280;10526;50.850;12.928;2023-04-03T07:14:23;99136.47;;;0.39
20730;BMP280;10526;50.850;12.928;2023-04-03T07:18:46;99137.97;;;0.31
20730;BMP280;10526;50.850;12.928;2023-04-03T07:23:08;99136.91;;;0.32
20730;BMP280;10526;50.850;12.928;2023-04-03T07:27:30;99143.66;;;0.47
20730;BMP280;10526;50.850;12.928;2023-04-03T07:31:53;99143.56;;;0.52
20730;BMP280;10526;50.850;12.928;2023-04-03T07:36:20;99141.50;;;0.63
20730;BMP280;10526;50.850;12.928;2023-04-03T07:40:48;99163.09;;;1.10
20730;BMP280;10526;50.850;12.928;2023-04-03T07:45:11;99163.59;;;1.12
20730;BMP280;10526;50.850;12.928;2023-04-03T07:49:34;99148.06;;;1.02
20730;BMP280;10526;50.850;12.928;2023-04-03T07:53:59;99170.09;;;1.01
20730;BMP280;10526;50.850;12.928;2023-04-03T07:58:22;99169.34;;;1.45
20730;BMP280;10526;50.850;12.928;2023-04-03T08:02:44;99168.38;;;1.55
20730;BMP280;10526;50.850;12.928;2023-04-03T08:07:12;99177.19;;;1.59
20730;BMP280;10526;50.850;12.928;2023-04-03T08:11:34;99168.91;;;1.43
20730;BMP280;10526;50.850;12.928;2023-04-03T08:16:06;99175.81;;;1.39
20730;BMP280;10526;50.850;12.928;2023-04-03T08:20:28;99173.13;;;1.53
20730;BMP280;10526;50.850;12.928;2023-04-03T08:24:50;99179.69;;;1.95
20730;BMP280;10526;50.850;12.928;2023-04-03T08:29:20;99184.19;;;2.26
20730;BMP280;10526;50.850;12.928;2023-04-03T08:33:43;99186.00;;;2.73
20730;BMP280;10526;50.850;12.928;2023-04-03T08:38:05;99198.59;;;3.46
20730;BMP280;10526;50.850;12.928;2023-04-03T08:43:03;99196.56;;;2.82
20730;BMP280;10526;50.850;12.928;2023-04-03T08:47:40;99192.22;;;3.30
20730;BMP280;10526;50.850;12.928;2023-04-03T08:52:11;99185.72;;;3.27
20730;BMP280;10526;50.850;12.928;2023-04-03T08:56:35;99194.28;;;3.97
20730;BMP280;10526;50.850;12.928;2023-04-03T09:01:07;99209.19;;;4.22
20730;BMP280;10526;50.850;12.928;2023-04-03T09:10:13;99207.53;;;3.62
20730;BMP280;10526;50.850;12.928;2023-04-03T09:15:15;99206.94;;;4.71
20730;BMP280;10526;50.850;12.928;2023-04-03T09:24:42;99216.00;;;5.24
20730;BMP280;10526;50.850;12.928;2023-04-03T09:29:08;99219.75;;;5.56
20730;BMP280;10526;50.850;12.928;2023-04-03T09:33:30;99218.78;;;4.65
20730;BMP280;10526;50.850;12.928;2023-04-03T09:38:02;99220.22;;;4.24
20730;BMP280;10526;50.850;12.928;2023-04-03T09:42:40;99225.97;;;4.56
20730;BMP280;10526;50.850;12.928;2023-04-03T09:47:29;99224.38;;;6.42
20730;BMP280;10526;50.850;12.928;2023-04-03T09:51:52;99225.88;;;5.15
20730;BMP280;10526;50.850;12.928;2023-04-03T09:56:25;99221.59;;;7.62
20730;BMP280;10526;50.850;12.928;2023-04-03T10:00:57;99222.63;;;11.40
20730;BMP280;10526;50.850;12.928;2023-04-03T10:05:41;99211.47;;;9.74
20730;BMP280;10526;50.850;12.928;2023-04-03T10:10:21;99208.03;;;7.80
20730;BMP280;10526;50.850;12.928;2023-04-03T10:15:00;99202.31;;;7.18
20730;BMP280;10526;50.850;12.928;2023-04-03T10:24:14;99186.00;;;5.29
20730;BMP280;10526;50.850;12.928;2023-04-03T10:29:51;99181.50;;;5.09
20730;BMP280;10526;50.850;12.928;2023-04-03T10:38:43;99191.22;;;9.00
20730;BMP280;10526;50.850;12.928;2023-04-03T10:57:15;99173.75;;;8.22
20730;BMP280;10526;50.850;12.928;2023-04-03T11:01:41;99167.78;;;7.93
20730;BMP280;10526;50.850;12.928;2023-04-03T11:06:10;99160.03;;;7.53
20730;BMP280;10526;50.850;12.928;2023-04-03T11:10:49;99163.09;;;7.39
20730;BMP280;10526;50.850;12.928;2023-04-03T11:15:18;99163.28;;;7.47
20730;BMP280;10526;50.850;12.928;2023-04-03T11:20:08;99166.06;;;6.66
20730;BMP280;10526;50.850;12.928;2023-04-03T11:24:33;99153.56;;;6.39
20730;BMP280;10526;50.850;12.928;2023-04-03T11:29:13;99151.50;;;5.83
20730;BMP280;10526;50.850;12.928;2023-04-03T11:38:28;99134.50;;;5.47
20730;BMP280;10526;50.850;12.928;2023-04-03T11:47:46;99130.19;;;7.72
20730;BMP280;10526;50.850;12.928;2023-04-03T11:52:12;99132.41;;;7.38
20730;BMP280;10526;50.850;12.928;2023-04-03T11:56:34;99125.25;;;6.67
20730;BMP280;10526;50.850;12.928;2023-04-03T12:01:00;99121.94;;;6.70
20730;BMP280;10526;50.850;12.928;2023-04-03T12:05:29;99105.06;;;8.01
20730;BMP280;10526;50.850;12.928;2023-04-03T12:09:57;99121.13;;;8.08
20730;BMP280;10526;50.850;12.928;2023-04-03T12:14:23;99114.28;;;7.09
20730;BMP280;10526;50.850;12.928;2023-04-03T12:23:32;99101.19;;;5.92
20730;BMP280;10526;50.850;12.928;2023-04-03T12:27:55;99103.81;;;5.79
20730;BMP280;10526;50.850;12.928;2023-04-03T12:37:37;99104.69;;;5.83
20730;BMP280;10526;50.850;12.928;2023-04-03T12:42:04;99101.28;;;5.71
20730;BMP280;10526;50.850;12.928;2023-04-03T12:46:38;99102.19;;;5.99
20730;BMP280;10526;50.850;12.928;2023-04-03T12:51:03;99102.03;;;6.08
20730;BMP280;10526;50.850;12.928;2023-04-03T12:55:25;99095.88;;;5.67
20730;BMP280;10526;50.850;12.928;2023-04-03T12:59:48;99084.84;;;5.53
20730;BMP280;10526;50.850;12.928;2023-04-03T13:04:12;99080.47;;;5.45
20730;BMP280;10526;50.850;12.928;2023-04-03T13:08:34;99086.59;;;5.37
20730;BMP280;10526;50.850;12.928;2023-04-03T13:13:07;99090.53;;;5.18
20730;BMP280;10526;50.850;12.928;2023-04-03T13:17:30;99091.81;;;5.00
20730;BMP280;10526;50.850;12.928;2023-04-03T13:22:06;99087.97;;;5.55
20730;BMP280;10526;50.850;12.928;2023-04-03T13:26:32;99094.97;;;6.12
20730;BMP280;10526;50.850;12.928;2023-04-03T13:31:15;99079.59;;;5.77
20730;BMP280;10526;50.850;12.928;2023-04-03T13:35:41;99081.97;;;5.95
20730;BMP280;10526;50.850;12.928;2023-04-03T13:44:34;99078.63;;;5.00
20730;BMP280;10526;50.850;12.928;2023-04-03T13:48:57;99074.50;;;5.11
20730;BMP280;10526;50.850;12.928;2023-04-03T13:53:19;99069.78;;;5.29
20730;BMP280;10526;50.850;12.928;2023-04-03T14:02:38;99062.19;;;5.52
20730;BMP280;10526;50.850;12.928;2023-04-03T14:07:01;99062.19;;;5.27
20730;BMP280;10526;50.850;12.928;2023-04-03T14:11:29;99061.16;;;4.74
20730;BMP280;10526;50.850;12.928;2023-04-03T14:15:51;99070.63;;;4.75
20730;BMP280;10526;50.850;12.928;2023-04-03T14:20:20;99080.84;;;4.77
20730;BMP280;10526;50.850;12.928;2023-04-03T14:24:44;99069.00;;;4.62
20730;BMP280;10526;50.850;12.928;2023-04-03T14:29:11;99072.22;;;4.89
20730;BMP280;10526;50.850;12.928;2023-04-03T14:33:34;99070.00;;;4.91
20730;BMP280;10526;50.850;12.928;2023-04-03T14:37:57;99066.34;;;4.50
20730;BMP280;10526;50.850;12.928;2023-04-03T14:42:27;99053.75;;;4.35
20730;BMP280;10526;50.850;12.928;2023-04-03T14:46:50;99062.41;;;4.35
20730;BMP280;10526;50.850;12.928;2023-04-03T14:51:18;99063.25;;;4.27
20730;BMP280;10526;50.850;12.928;2023-04-03T14:55:43;99041.53;;;4.21
20730;BMP280;10526;50.850;12.928;2023-04-03T15:00:12;99056.25;;;4.22
20730;BMP280;10526;50.850;12.928;2023-04-03T15:04:35;99053.84;;;4.17
20730;BMP280;10526;50.850;12.928;2023-04-03T15:08:57;99044.72;;;4.36
20730;BMP280;10526;50.850;12.928;2023-04-03T15:13:19;99043.66;;;4.49
20730;BMP280;10526;50.850;12.928;2023-04-03T15:17:43;99051.34;;;4.42
20730;BMP280;10526;50.850;12.928;2023-04-03T15:22:12;99037.75;;;4.10
20730;BMP280;10526;50.850;12.928;2023-04-03T15:26:35;99056.94;;;3.90
20730;BMP280;10526;50.850;12.928;2023-04-03T15:30:57;99040.50;;;3.93
20730;BMP280;10526;50.850;12.928;2023-04-03T15:35:20;99051.06;;;3.93
20730;BMP280;10526;50.850;12.928;2023-04-03T15:39:42;99038.69;;;3.85
20730;BMP280;10526;50.850;12.928;2023-04-03T15:44:04;99043.84;;;3.72
20730;BMP280;10526;50.850;12.928;2023-04-03T15:48:27;99041.13;;;3.60
20730;BMP280;10526;50.850;12.928;2023-04-03T15:52:52;99056.44;;;3.67
20730;BMP280;10526;50.850;12.928;2023-04-03T15:57:16;99041.50;;;3.50
20730;BMP280;10526;50.850;12.928;2023-04-03T16:01:39;99045.31;;;3.53
20730;BMP280;10526;50.850;12.928;2023-04-03T16:06:01;99046.09;;;3.53
20730;BMP280;10526;50.850;12.928;2023-04-03T16:10:23;99047.41;;;3.30
20730;BMP280;10526;50.850;12.928;2023-04-03T16:14:46;99045.16;;;3.19
20730;BMP280;10526;50.850;12.928;2023-04-03T16:19:09;99049.66;;;3.19
20730;BMP280;10526;50.850;12.928;2023-04-03T16:23:31;99050.75;;;3.09
20730;BMP280;10526;50.850;12.928;2023-04-03T16:27:53;99045.63;;;3.04
20730;BMP280;10526;50.850;12.928;2023-04-03T16:32:15;99044.88;;;2.95
20730;BMP280;10526;50.850;12.928;2023-04-03T16:36:38;99059.13;;;2.77
20730;BMP280;10526;50.850;12.928;2023-04-03T16:41:00;99047.22;;;2.70
20730;BMP280;10526;50.850;12.928;2023-04-03T16:45:26;99049.72;;;2.58
20730;BMP280;10526;50.850;12.928;2023-04-03T16:49:48;99059.59;;;2.44
20730;BMP280;10526;50.850;12.928;2023-04-03T16:54:11;99060.81;;;2.38
20730;BMP280;10526;50.850;12.928;2023-04-03T16:58:35;99065.78;;;2.39
20730;BMP280;10526;50.850;12.928;2023-04-03T17:02:56;99068.06;;;2.32
20730;BMP280;10526;50.850;12.928;2023-04-03T17:07:21;99077.19;;;2.26
20730;BMP280;10526;50.850;12.928;2023-04-03T17:11:43;99063.25;;;2.08
20730;BMP280;10526;50.850;12.928;2023-04-03T17:16:13;99064.31;;;2.07
20730;BMP280;10526;50.850;12.928;2023-04-03T17:20:36;99068.31;;;1.96
20730;BMP280;10526;50.850;12.928;2023-04-03T17:24:59;99065.34;;;1.89
20730;BMP280;10526;50.850;12.928;2023-04-03T17:29:21;99066.41;;;1.88
20730;BMP280;10526;50.850;12.928;2023-04-03T17:33:44;99075.69;;;1.85
20730;BMP280;10526;50.850;12.928;2023-04-03T17:38:06;99078.16;;;1.82
20730;BMP280;10526;50.850;12.928;2023-04-03T17:42:28;99091.72;;;1.75
20730;BMP280;10526;50.850;12.928;2023-04-03T17:46:53;99086.00;;;1.73
20730;BMP280;10526;50.850;12.928;2023-04-03T17:51:20;99100.16;;;1.63
20730;BMP280;10526;50.850;12.928;2023-04-03T17:55:42;99090.25;;;1.60
20730;BMP280;10526;50.850;12.928;2023-04-03T18:00:06;99085.00;;;1.60
20730;BMP280;10526;50.850;12.928;2023-04-03T18:04:32;99096.09;;;1.57
20730;BMP280;10526;50.850;12.928;2023-04-03T18:09:10;99103.50;;;1.55
20730;BMP280;10526;50.850;12.928;2023-04-03T18:13:35;99093.13;;;1.50
20730;BMP280;10526;50.850;12.928;2023-04-03T18:17:58;99092.06;;;1.51
20730;BMP280;10526;50.850;12.928;2023-04-03T18:22:24;99099.34;;;1.54
20730;BMP280;10526;50.850;12.928;2023-04-03T18:27:06;99086.63;;;1.47
20730;BMP280;10526;50.850;12.928;2023-04-03T18:31:32;99095.84;;;1.45
20730;BMP280;10526;50.850;12.928;2023-04-03T18:35:56;99100.34;;;1.44
20730;BMP280;10526;50.850;12.928;2023-04-03T18:40:17;99090.50;;;1.50
20730;BMP280;10526;50.850;12.928;2023-04-03T18:44:42;99101.97;;;1.54
20730;BMP280;10526;50.850;12.928;2023-04-03T18:49:05;99103.91;;;1.48
20730;BMP280;10526;50.850;12.928;2023-04-03T18:53:27;99102.78;;;1.41
20730;BMP280;10526;50.850;12.928;2023-04-03T18:57:49;99096.59;;;1.37
20730;BMP280;10526;50.850;12.928;2023-04-03T19:02:12;99100.91;;;1.33
20730;BMP280;10526;50.850;12.928;2023-04-03T19:06:36;99089.47;;;1.29
20730;BMP280;10526;50.850;12.928;2023-04-03T19:10:58;99089.88;;;1.22
20730;BMP280;10526;50.850;12.928;2023-04-03T19:15:22;99098.84;;;1.07
20730;BMP280;10526;50.850;12.928;2023-04-03T19:19:46;99091.44;;;0.87
20730;BMP280;10526;50.850;12.928;2023-04-03T19:24:10;99090.63;;;0.64
20730;BMP280;10526;50.850;12.928;2023-04-03T19:28:33;99099.19;;;0.42
20730;BMP280;10526;50.850;12.928;2023-04-03T19:32:55;99099.63;;;0.21
20730;BMP280;10526;50.850;12.928;2023-04-03T19:37:17;99095.53;;;0.15
20730;BMP280;10526;50.850;12.928;2023-04-03T19:41:40;99088.75;;;0.14
20730;BMP280;10526;50.850;12.928;2023-04-03T19:46:04;99086.84;;;0.20
20730;BMP280;10526;50.850;12.928;2023-04-03T19:50:29;99096.31;;;0.30
20730;BMP280;10526;50.850;12.928;2023-04-03T19:54:51;99086.19;;;0.37
20730;BMP280;10526;50.850;12.928;2023-04-03T19:59:14;99094.91;;;0.46
20730;BMP280;10526;50.850;12.928;2023-04-03T20:03:37;99094.66;;;0.47
20730;BMP280;10526;50.850;12.928;2023-04-03T20:08:00;99085.22;;;0.46
20730;BMP280;10526;50.850;12.928;2023-04-03T20:12:23;99101.41;;;0.62
20730;BMP280;10526;50.850;12.928;2023-04-03T20:16:45;99096.06;;;0.67
20730;BMP280;10526;50.850;12.928;2023-04-03T20:21:08;99092.56;;;0.72
20730;BMP280;10526;50.850;12.928;2023-04-03T20:25:31;99089.47;;;0.70
20730;BMP280;10526;50.850;12.928;2023-04-03T20:29:56;99090.50;;;0.69
20730;BMP280;10526;50.850;12.928;2023-04-03T20:34:19;99085.75;;;0.71
20730;BMP280;10526;50.850;12.928;2023-04-03T20:38:41;99084.41;;;0.73
20730;BMP280;10526;50.850;12.928;2023-04-03T20:43:06;99091.97;;;0.75
20730;BMP280;10526;50.850;12.928;2023-04-03T20:47:28;99080.59;;;0.80
20730;BMP280;10526;50.850;12.928;2023-04-03T20:51:51;99083.41;;;0.83
20730;BMP280;10526;50.850;12.928;2023-04-03T20:56:14;99076.81;;;0.86
20730;BMP280;10526;50.850;12.928;2023-04-03T21:00:37;99078.34;;;0.87
20730;BMP280;10526;50.850;12.928;2023-04-03T21:05:00;99070.66;;;0.90
20730;BMP280;10526;50.850;12.928;2023-04-03T21:19:59;99066.88;;;0.96
20730;BMP280;10526;50.850;12.928;2023-04-03T21:24:21;99074.91;;;1.00
20730;BMP280;10526;50.850;12.928;2023-04-03T21:28:44;99074.28;;;1.03
20730;BMP280;10526;50.850;12.928;2023-04-03T21:33:07;99064.13;;;1.02
20730;BMP280;10526;50.850;12.928;2023-04-03T21:37:32;99063.81;;;1.03
20730;BMP280;10526;50.850;12.928;2023-04-03T21:41:55;99061.69;;;1.05
20730;BMP280;10526;50.850;12.928;2023-04-03T21:46:17;99052.09;;;1.01
20730;BMP280;10526;50.850;12.928;2023-04-03T21:50:43;99059.28;;;0.95
20730;BMP280;10526;50.850;12.928;2023-04-03T21:55:08;99069.41;;;0.88
20730;BMP280;10526;50.850;12.928;2023-04-03T21:59:30;99060.69;;;0.79
20730;BMP280;10526;50.850;12.928;2023-04-03T22:03:57;99057.25;;;0.69
20730;BMP280;10526;50.850;12.928;2023-04-03T22:08:23;99059.09;;;0.55
20730;BMP280;10526;50.850;12.928;2023-04-03T22:12:45;99056.91;;;0.35
20730;BMP280;10526;50.850;12.928;2023-04-03T22:17:07;99049.97;;;0.16
20730;BMP280;10526;50.850;12.928;2023-04-03T22:21:29;99046.75;;;0.06
20730;BMP280;10526;50.850;12.928;2023-04-03T22:30:20;99044.16;;;0.06
20730;BMP280;10526;50.850;12.928;2023-04-03T22:34:42;99035.13;;;0.12
20730;BMP280;10526;50.850;12.928;2023-04-03T22:39:04;99038.13;;;0.19
20730;BMP280;10526;50.850;12.928;2023-04-03T22:43:30;99042.38;;;0.29
20730;BMP280;10526;50.850;12.928;2023-04-03T22:47:53;99037.00;;;0.34
20730;BMP280;10526;50.850;12.928;2023-04-03T22:52:19;99035.72;;;0.45
20730;BMP280;10526;50.850;12.928;2023-04-03T22:56:43;99028.25;;;0.52
20730;BMP280;10526;50.850;12.928;2023-04-03T23:01:10;99024.34;;;0.49
20730;BMP280;10526;50.850;12.928;2023-04-03T23:05:33;99020.50;;;0.47
20730;BMP280;10526;50.850;12.928;2023-04-03T23:09:56;99027.59;;;0.46
20730;BMP280;10526;50.850;12.928;2023-04-03T23:14:18;99021.53;;;0.46
20730;BMP280;10526;50.850;12.928;2023-04-03T23:18:42;99030.84;;;0.52
20730;BMP280;10526;50.850;12.928;2023-04-03T23:23:04;99021.16;;;0.53
20730;BMP280;10526;50.850;12.928;2023-04-03T23:27:27;99022.09;;;0.57
20730;BMP280;10526;50.850;12.928;2023-04-03T23:31:49;99019.66;;;0.60
20730;BMP280;10526;50.850;12.928;2023-04-03T23:36:12;99020.63;;;0.64
20730;BMP280;10526;50.850;12.928;2023-04-03T23:40:36;99018.50;;;0.66
20730;BMP280;10526;50.850;12.928;2023-04-03T23:44:59;99018.19;;;0.68
20730;BMP280;10526;50.850;12.928;2023-04-03T23:49:21;99024.69;;;0.70
20730;BMP280;10526;50.850;12.928;2023-04-03T23:53:44;99020.03;;;0.67
20730;BMP280;10526;50.850;12.928;2023-04-03T23:58:06;99012.56;;;0.61
